Date,TemperatureHighF,TemperatureAvgF,TemperatureLowF,DewpointHighF,DewpointAvgF,DewpointLowF,HumidityHigh,HumidityAvg,HumidityLow,PressureMaxIn,PressureMinIn,WindSpeedMaxMPH,WindSpeedAvgMPH,GustSpeedMaxMPH,PrecipitationSumIn
2013-1-1,81.4,68.4,58.1,65.0,61.0,56.0,94,79,55,30.18,30.02,3,0,5,0.00
2013-1-2,82.8,70.2,61.4,68.0,63.1,60.0,95,80,52,30.06,29.95,3,0,4,0.00
2013-1-3,83.8,71.6,61.0,70.0,65.9,59.0,96,84,60,30.11,30.00,2,0,4,0.00
2013-1-4,79.9,70.3,65.4,71.0,66.6,64.0,95,88,71,30.22,30.08,1,0,2,0.00
2013-1-5,81.6,70.3,62.8,72.0,66.6,61.0,96,88,71,30.23,30.14,3,0,5,0.06
2013-1-6,82.5,71.8,63.5,75.0,68.5,62.0,97,90,72,30.17,30.02,1,0,3,0.35
2013-1-7,78.6,71.2,67.2,71.0,68.4,66.0,96,91,75,30.16,30.06,3,0,5,0.17
2013-1-8,79.4,72.0,68.9,74.0,69.8,67.0,96,93,81,30.20,30.07,2,0,5,0.18
2013-1-9,83.4,75.5,70.9,74.0,72.0,70.0,97,89,71,30.26,30.15,3,1,6,0.25
2013-1-10,80.6,74.1,68.9,71.0,68.4,66.0,95,83,66,30.27,30.16,6,1,10,0.00
2013-1-11,79.4,72.3,66.9,71.0,68.2,65.0,95,87,74,30.24,30.13,6,1,7,0.00
2013-1-12,82.1,72.8,65.0,69.0,66.5,63.0,96,81,58,30.16,30.07,3,1,6,0.00
2013-1-13,81.8,72.2,64.2,71.0,66.7,62.0,94,83,67,30.11,30.05,4,0,6,0.00
2013-1-14,81.6,72.0,65.8,71.0,67.1,63.0,94,85,61,30.15,30.08,4,0,5,0.00
2013-1-15,81.1,70.5,62.9,70.0,65.5,61.0,96,85,67,30.12,30.03,4,0,5,0.00
2013-1-16,84.2,71.0,60.1,71.0,65.7,58.0,96,84,58,30.09,29.98,1,0,3,0.00
2013-1-17,84.8,71.9,59.0,72.0,64.5,51.0,96,78,58,30.07,29.91,4,1,5,0.00
2013-1-18,73.7,61.6,48.7,63.0,53.3,43.0,91,75,56,30.22,30.07,2,0,5,0.00
2013-1-19,73.5,67.6,64.4,68.0,65.2,63.0,96,92,81,30.20,30.09,2,0,4,0.41
2013-1-20,79.6,68.8,64.1,71.0,65.8,63.0,97,90,72,30.12,30.01,1,0,3,0.00
2013-1-21,81.3,69.6,64.2,70.0,65.8,63.0,96,88,68,30.05,29.94,2,0,3,0.00
2013-1-22,72.9,64.1,56.3,63.0,56.8,52.0,94,78,58,30.22,29.99,3,0,7,0.00
2013-1-23,75.9,61.7,53.3,59.0,52.8,45.0,88,73,55,30.30,30.20,2,0,3,0.00
2013-1-24,78.0,62.2,51.4,55.0,50.3,45.0,89,69,31,30.29,30.19,1,0,4,0.00
2013-1-25,79.1,63.3,51.6,59.0,55.0,49.0,94,77,47,30.27,30.15,2,0,5,0.00
2013-1-26,81.9,65.0,53.6,60.0,54.8,49.0,92,73,35,30.24,30.13,2,0,4,0.00
2013-1-27,79.6,66.0,54.5,65.0,59.4,53.0,95,81,51,30.28,30.19,3,0,6,0.00
2013-1-28,80.7,70.5,60.8,68.0,64.6,59.0,96,83,62,30.30,30.20,5,1,7,0.00
2013-1-29,76.9,70.5,64.9,72.0,67.5,63.0,96,90,82,30.22,30.09,4,0,6,0.01
2013-1-30,83.8,72.3,63.3,68.0,65.3,61.0,95,80,56,30.09,29.92,4,0,7,0.00
2013-1-31,72.3,63.2,51.2,68.0,54.8,39.0,96,76,43,30.17,29.91,2,0,3,0.05
2013-2-1,72.2,56.8,45.4,54.0,45.8,39.0,83,68,51,30.28,30.17,2,0,5,0.00
2013-2-2,76.8,60.0,46.7,57.0,49.8,41.0,89,71,44,30.25,30.10,4,0,5,0.00
2013-2-3,75.3,61.0,51.1,52.0,48.2,39.0,92,68,27,30.17,30.04,1,0,3,0.00
2013-2-4,76.7,59.5,45.3,54.0,45.0,37.0,89,64,24,30.12,30.00,2,0,3,0.00
2013-2-5,83.0,65.1,50.8,59.0,52.5,44.0,88,68,28,30.07,29.98,2,0,4,0.00
2013-2-6,83.3,69.9,60.4,68.0,62.5,58.0,94,78,50,30.09,29.99,3,0,5,0.00
2013-2-7,81.7,71.9,60.9,68.0,64.1,59.0,94,78,58,30.05,29.89,3,0,4,0.00
2013-2-8,86.7,72.3,62.5,68.0,63.9,56.0,94,77,37,30.03,29.87,3,0,4,0.00
2013-2-9,80.3,68.1,58.9,65.0,61.3,58.0,95,80,57,30.16,30.02,3,0,6,0.00
2013-2-10,77.4,69.9,64.0,64.0,61.8,60.0,86,76,59,30.24,30.14,5,1,7,0.00
2013-2-11,84.7,71.8,63.5,67.0,63.7,60.0,91,77,52,30.20,30.07,3,0,5,0.00
2013-2-12,88.0,74.6,62.4,70.0,65.8,61.0,96,76,46,30.09,29.92,2,0,4,0.00
2013-2-13,88.8,76.5,66.9,74.0,69.0,66.0,96,79,53,29.97,29.84,3,0,6,0.00
2013-2-14,72.2,66.0,61.4,71.0,64.0,60.0,96,93,82,30.01,29.88,3,0,4,1.75
2013-2-15,64.6,63.2,61.3,64.0,61.6,60.0,96,94,91,30.03,29.93,1,0,2,0.10
2013-2-16,74.1,63.3,50.2,63.0,55.3,44.0,97,77,45,30.05,29.87,3,0,4,0.01
2013-2-17,59.7,49.7,40.4,44.0,30.6,23.0,83,51,27,30.30,30.05,3,0,5,0.00
2013-2-18,70.7,56.2,41.6,53.0,43.8,31.0,83,64,48,30.31,30.20,5,1,7,0.00
2013-2-19,82.0,68.2,55.5,66.0,59.5,52.0,94,76,51,30.20,30.05,2,0,5,0.00
2013-2-20,82.1,68.8,58.9,67.0,63.1,57.0,95,83,58,30.11,29.98,3,0,6,0.00
2013-2-21,83.3,70.4,59.8,70.0,65.2,58.0,96,84,59,30.08,29.98,3,0,5,0.00
2013-2-22,85.9,74.4,64.4,73.0,68.8,63.0,96,84,62,30.07,29.98,3,0,5,0.00
2013-2-23,89.0,76.4,65.7,73.0,69.0,64.0,96,80,48,30.02,29.86,2,0,5,0.02
2013-2-24,90.3,77.4,69.5,73.0,69.9,67.0,95,80,48,29.97,29.86,3,0,4,0.00
2013-2-25,89.1,76.5,68.4,73.0,70.0,67.0,96,82,53,29.88,29.77,3,0,5,0.00
2013-2-26,89.4,78.5,71.3,74.0,71.2,70.0,95,80,54,29.85,29.75,7,1,9,0.00
2013-2-27,81.7,70.3,63.8,69.0,63.9,60.0,93,81,51,29.93,29.84,3,0,4,0.00
2013-2-28,79.2,64.8,56.6,62.0,53.9,49.0,92,70,36,29.98,29.86,1,0,2,0.00
2013-3-1,68.3,61.4,56.8,55.0,49.1,43.0,80,65,41,29.96,29.88,1,0,3,0.00
2013-3-2,67.3,56.5,47.9,45.0,40.9,34.0,76,58,36,30.01,29.94,3,0,4,0.00
2013-3-3,64.5,51.6,41.1,42.0,39.0,35.0,84,64,42,30.14,29.94,3,0,4,0.00
2013-3-4,71.1,53.0,39.8,45.0,37.1,31.0,83,60,24,30.21,30.11,2,0,5,0.00
2013-3-5,82.4,63.2,46.0,57.0,50.0,42.0,92,66,31,30.15,30.04,2,0,6,0.00
2013-3-6,78.0,63.2,48.2,64.0,48.7,31.0,95,65,24,30.09,29.93,3,1,4,0.00
2013-3-7,75.0,57.6,43.5,53.0,46.0,37.0,87,67,43,30.17,30.06,3,0,6,0.00
2013-3-8,81.4,61.4,47.2,53.0,49.3,43.0,94,69,26,30.20,30.09,2,0,4,0.00
2013-3-9,79.0,63.4,49.7,58.0,53.4,47.0,93,72,47,30.18,30.09,2,0,6,0.00
2013-3-10,78.3,66.3,57.0,62.0,57.6,54.0,90,75,53,30.15,30.06,5,1,7,0.00
2013-3-11,77.9,68.3,58.6,64.0,60.2,56.0,92,77,59,30.09,29.92,4,1,6,0.00
2013-3-12,79.2,71.0,62.8,71.0,65.5,60.0,94,83,65,29.97,29.87,3,0,6,0.01
2013-3-13,78.9,64.8,52.8,61.0,52.5,45.0,94,69,30,30.10,29.97,3,0,5,0.00
2013-3-14,75.3,58.8,48.7,50.0,45.3,39.0,88,65,27,30.20,30.09,2,0,5,0.00
2013-3-15,77.2,58.1,46.1,52.0,47.2,43.0,90,71,33,30.25,30.13,2,0,4,0.00
2013-3-16,84.9,64.0,47.5,56.0,50.5,43.0,92,67,30,30.18,30.04,3,0,6,0.00
2013-3-17,80.4,65.8,54.1,62.0,56.8,51.0,90,74,53,30.14,30.00,3,0,6,0.00
2013-3-18,84.5,71.0,64.5,71.0,65.1,60.0,95,82,57,30.05,29.91,3,0,5,0.27
2013-3-19,81.7,71.6,65.0,70.0,66.4,64.0,96,85,62,29.99,29.86,2,0,3,0.00
2013-3-20,83.3,71.2,62.9,71.0,64.1,60.0,95,80,58,29.94,29.77,3,0,4,0.00
2013-3-21,79.3,66.5,56.7,62.0,50.5,36.0,94,63,22,29.92,29.81,2,0,4,0.00
2013-3-22,81.0,65.3,50.5,66.0,56.4,47.0,93,74,47,29.99,29.88,3,0,7,0.12
2013-3-23,91.3,77.5,67.2,76.0,69.2,66.0,96,78,49,29.95,29.75,3,0,6,0.01
2013-3-24,90.8,77.4,69.0,75.0,70.7,67.0,95,81,56,29.85,29.64,5,1,10,0.56
2013-3-25,82.6,72.0,57.4,73.0,56.5,37.0,96,64,27,29.98,29.71,3,0,3,0.00
2013-3-26,70.6,57.4,46.9,46.0,38.4,30.0,83,52,29,30.20,29.98,3,0,5,0.00
2013-3-27,74.0,54.8,41.9,47.0,39.9,35.0,85,61,26,30.25,30.15,3,0,5,0.00
2013-3-28,78.3,59.4,44.7,49.0,45.1,41.0,92,64,27,30.26,30.16,3,0,6,0.00
2013-3-29,79.8,63.2,49.5,54.0,49.1,46.0,91,64,34,30.29,30.19,3,0,5,0.00
2013-3-30,79.2,65.6,53.6,58.0,53.4,50.0,92,67,44,30.24,30.13,4,1,8,0.00
2013-3-31,86.8,70.0,55.7,67.0,59.8,53.0,93,73,44,30.16,29.99,3,0,5,0.00
2013-4-1,90.1,75.0,64.6,72.0,65.9,62.0,95,76,43,30.02,29.91,3,0,4,0.00
2013-4-2,92.0,74.0,62.6,69.0,65.0,61.0,95,76,39,30.05,29.96,3,0,6,0.00
2013-4-3,86.8,75.4,65.9,71.0,67.7,64.0,94,78,53,30.05,29.94,6,1,8,0.00
2013-4-4,84.0,72.9,68.2,74.0,69.4,67.0,96,89,70,30.02,29.88,1,0,5,2.76
2013-4-5,76.0,69.6,65.9,69.0,66.5,63.0,96,90,76,29.95,29.77,2,0,5,0.20
2013-4-6,81.7,69.3,56.0,66.0,61.4,54.0,95,77,53,30.07,29.91,5,0,7,0.00
2013-4-7,81.0,72.5,62.4,68.0,63.6,60.0,91,74,59,30.12,30.02,6,1,8,0.00
2013-4-8,84.7,72.8,60.5,67.0,63.3,58.0,94,74,50,30.12,30.03,4,0,5,0.00
2013-4-9,83.0,74.6,65.6,70.0,66.9,64.0,95,77,60,30.14,30.04,6,1,8,0.00
2013-4-10,85.5,76.1,67.0,74.0,69.9,65.0,94,82,68,30.08,29.97,5,1,7,0.00
2013-4-11,87.1,78.9,72.1,74.0,72.3,70.0,92,81,63,29.99,29.85,5,1,8,0.00
2013-4-12,92.1,80.2,74.1,78.0,73.7,72.0,95,82,54,29.90,29.81,3,1,8,0.05
2013-4-13,94.5,78.7,73.3,78.0,73.0,71.0,95,84,50,29.95,29.85,2,0,4,0.78
2013-4-14,90.8,80.4,73.1,77.0,73.7,71.0,95,81,57,29.94,29.83,4,1,8,0.00
2013-4-15,95.0,77.8,67.9,76.0,70.8,65.0,93,80,51,30.03,29.91,4,0,7,0.00
2013-4-16,87.6,78.6,70.6,77.0,72.2,69.0,96,81,62,30.11,30.00,5,1,7,0.00
2013-4-17,87.4,77.4,68.1,70.0,68.3,66.0,93,75,54,30.10,30.00,6,1,6,0.00
2013-4-18,88.4,78.0,68.5,74.0,70.6,66.0,93,79,58,30.03,29.94,6,1,8,0.00
2013-4-19,91.1,79.7,73.3,77.0,72.7,70.0,94,80,55,30.01,29.91,5,1,7,0.48
2013-4-20,91.1,76.7,69.6,77.0,71.4,68.0,95,84,60,30.08,29.95,3,0,5,0.08
2013-4-21,87.0,75.1,66.6,76.0,70.5,65.0,95,86,61,30.08,29.95,4,1,6,0.08
2013-4-22,83.9,73.5,69.9,73.0,69.9,68.0,95,89,68,30.03,29.93,3,0,3,0.13
2013-4-23,85.0,74.5,66.8,71.0,66.6,64.0,96,78,53,30.07,29.95,4,0,8,0.00
2013-4-24,86.8,74.9,64.1,68.0,65.0,62.0,93,73,51,30.11,30.02,4,1,7,0.00
2013-4-25,88.3,76.6,66.2,69.0,64.9,62.0,91,69,44,30.17,30.06,2,0,6,0.00
2013-4-26,88.2,76.1,64.0,71.0,66.6,61.0,92,74,51,30.20,30.11,4,0,8,0.00
2013-4-27,84.9,76.6,66.5,69.0,66.4,64.0,93,72,55,30.19,30.07,6,1,8,0.00
2013-4-28,86.4,77.3,70.8,68.0,65.1,61.0,81,67,43,30.10,29.98,7,1,8,0.00
2013-4-29,86.3,76.5,69.1,75.0,69.1,65.0,91,78,56,30.00,29.90,5,1,6,0.10
2013-4-30,83.6,73.9,70.0,76.0,71.2,68.0,95,91,74,29.98,29.91,3,0,7,1.13
2013-5-1,85.0,73.8,69.0,75.0,70.2,66.0,96,89,66,29.98,29.91,4,0,7,1.57
2013-5-2,72.6,71.3,69.7,71.0,69.7,68.0,96,95,92,29.93,29.78,3,0,4,0.46
2013-5-3,90.5,76.4,68.2,74.0,70.1,67.0,96,82,53,29.81,29.63,2,0,4,0.03
2013-5-4,89.0,76.3,67.1,72.0,68.8,66.0,95,79,54,29.77,29.66,2,0,3,0.00
2013-5-5,85.0,74.0,64.1,68.0,61.0,51.0,95,68,36,29.91,29.72,3,0,3,0.00
2013-5-6,86.1,71.8,59.6,68.0,60.7,54.0,90,70,48,29.97,29.88,2,0,3,0.00
2013-5-7,86.7,72.0,58.6,64.0,58.8,55.0,90,66,44,30.03,29.94,2,0,4,0.00
2013-5-8,89.3,75.0,60.4,65.0,61.2,54.0,91,65,30,30.10,30.00,2,0,5,0.00
2013-5-9,92.0,76.9,64.5,73.0,67.5,61.0,89,74,39,30.12,30.04,2,0,7,0.00
2013-5-10,91.7,80.1,72.1,75.0,72.0,69.0,94,78,53,30.11,29.98,5,1,7,0.00
2013-5-11,96.5,80.2,70.7,76.0,71.3,67.0,96,77,39,30.05,29.92,2,0,4,0.22
2013-5-12,92.0,79.0,70.6,77.0,72.8,69.0,96,82,56,30.02,29.92,3,0,4,0.00
2013-5-13,87.6,77.3,70.2,73.0,69.1,64.0,93,77,55,30.07,29.96,3,0,4,0.00
2013-5-14,85.0,74.1,63.3,65.0,60.5,57.0,88,65,43,30.16,30.07,3,0,7,0.00
2013-5-15,86.1,73.4,63.2,66.0,62.4,59.0,87,70,46,30.17,30.08,5,1,6,0.00
2013-5-16,87.1,75.4,64.5,68.0,64.7,62.0,93,71,52,30.09,30.02,4,1,6,0.00
2013-5-17,87.3,77.4,68.4,74.0,69.0,65.0,91,76,58,30.07,29.99,5,1,7,0.00
2013-5-18,91.1,79.2,70.9,76.0,72.1,69.0,94,80,53,30.08,30.00,5,1,6,0.17
2013-5-19,84.7,78.1,72.1,75.0,71.5,70.0,93,81,64,30.08,29.98,4,1,6,0.00
2013-5-20,82.7,76.2,71.6,75.0,72.0,69.0,94,87,71,30.06,29.95,4,0,5,0.59
2013-5-21,88.7,76.7,69.5,75.0,71.3,68.0,95,85,58,30.00,29.91,4,1,7,0.28
2013-5-22,87.6,76.5,71.3,77.0,72.7,69.0,96,88,64,29.95,29.87,4,0,7,1.77
2013-5-23,93.5,80.7,70.8,77.0,73.4,69.0,95,80,54,29.97,29.87,3,1,4,0.00
2013-5-24,95.2,82.9,71.1,76.0,70.9,65.0,93,70,41,30.04,29.92,3,0,5,0.00
2013-5-25,89.6,80.9,74.2,74.0,69.0,65.0,88,69,45,30.15,30.03,5,1,8,0.00
2013-5-26,86.5,77.2,66.3,69.0,66.3,62.0,87,70,55,30.16,30.10,3,1,5,0.00
2013-5-27,87.1,78.3,68.8,74.0,69.1,63.0,86,74,60,30.14,30.06,5,1,8,0.00
2013-5-28,85.3,78.2,73.1,76.0,73.1,70.0,95,84,71,30.10,30.03,6,2,8,0.64
2013-5-29,82.9,76.8,73.2,76.0,73.3,71.0,95,89,78,30.09,30.01,6,1,7,0.41
2013-5-30,83.5,77.5,72.2,76.0,72.9,70.0,95,86,70,30.08,29.99,7,2,9,0.72
2013-5-31,84.4,79.8,74.8,76.0,73.4,70.0,91,81,73,30.05,30.00,7,2,9,0.00
2013-6-1,87.8,80.1,75.5,78.0,75.3,73.0,95,85,67,30.02,29.94,5,1,7,0.06
2013-6-2,96.5,81.5,74.3,78.0,74.8,73.0,95,81,50,29.97,29.87,6,0,6,0.01
2013-6-3,93.0,80.1,74.6,77.0,75.0,73.0,95,85,57,29.99,29.89,3,0,7,0.07
2013-6-4,86.4,79.2,75.8,77.0,74.4,71.0,94,86,61,30.02,29.92,1,0,2,0.01
2013-6-5,86.8,80.3,77.5,79.0,76.5,75.0,93,88,71,29.99,29.88,4,0,5,0.07
2013-6-6,82.9,77.3,74.4,80.0,75.2,72.0,95,93,89,29.89,29.73,4,1,10,3.15
2013-6-7,91.5,79.8,73.5,80.0,75.5,72.0,96,87,66,29.95,29.79,3,0,6,1.16
2013-6-8,89.1,78.5,75.4,79.0,75.6,74.0,95,91,72,30.08,29.93,2,0,5,0.01
2013-6-9,90.0,81.5,75.3,79.0,75.8,74.0,95,83,62,30.09,30.00,4,1,7,0.00
2013-6-10,91.2,83.0,77.2,80.0,76.9,75.0,92,82,66,30.07,29.99,6,1,6,0.00
2013-6-11,92.6,80.5,76.0,80.0,76.5,73.0,95,88,61,30.05,29.99,2,0,5,0.09
2013-6-12,91.6,81.3,76.1,80.0,76.4,74.0,96,85,63,30.05,30.00,2,0,5,0.00
2013-6-13,95.2,82.5,74.1,77.0,74.7,72.0,95,79,51,30.02,29.90,2,0,6,0.00
2013-6-14,96.2,84.4,75.0,78.0,75.5,73.0,95,76,51,29.94,29.82,2,0,3,0.00
2013-6-15,96.6,84.3,75.0,78.0,75.8,73.0,94,77,50,30.03,29.90,3,0,7,0.00
2013-6-16,93.9,84.8,78.4,79.0,77.1,74.0,91,78,58,30.05,29.99,3,1,7,0.00
2013-6-17,95.4,85.0,76.9,79.0,76.7,74.0,94,77,52,30.05,29.97,3,0,6,0.00
2013-6-18,98.7,85.7,77.2,79.0,76.4,73.0,94,76,45,30.04,29.94,3,0,5,0.00
2013-6-19,95.1,84.2,75.8,80.0,76.2,72.0,90,77,57,30.03,29.95,4,0,5,0.00
2013-6-20,96.9,81.0,73.1,78.0,74.9,71.0,95,83,53,30.09,29.99,3,0,5,2.59
2013-6-21,91.6,78.0,74.1,79.0,74.8,72.0,96,90,62,30.11,30.01,2,0,5,0.98
2013-6-22,90.9,81.6,73.6,78.0,74.8,72.0,96,81,61,30.09,30.02,3,0,5,0.00
2013-6-23,87.0,79.9,76.5,79.0,75.4,74.0,93,86,68,30.12,30.03,3,0,4,0.60
2013-6-24,91.0,82.8,74.3,78.0,75.2,73.0,96,79,58,30.15,30.06,4,1,6,0.49
2013-6-25,91.8,83.1,76.2,81.0,76.6,74.0,94,81,65,30.11,30.02,5,1,7,0.00
2013-6-26,91.3,79.9,74.7,80.0,76.2,72.0,95,89,62,30.06,29.98,4,0,7,0.95
2013-6-27,93.2,81.2,74.8,79.0,76.1,73.0,96,85,62,30.03,29.93,3,0,8,0.13
2013-6-28,96.4,83.4,75.5,79.0,75.1,72.0,94,78,47,29.97,29.82,3,0,4,0.00
2013-6-29,97.3,82.8,75.5,79.0,75.3,73.0,94,80,51,29.89,29.78,2,0,7,0.09
2013-6-30,92.4,79.5,75.8,80.0,76.1,74.0,95,89,65,29.91,29.82,3,0,5,0.77
2013-7-1,91.4,79.4,75.4,80.0,75.7,74.0,95,89,65,30.02,29.88,4,1,7,0.75
2013-7-2,85.9,78.6,74.9,80.0,76.1,73.0,94,92,79,30.09,29.95,2,0,5,0.30
2013-7-3,89.7,80.8,74.8,80.0,76.2,72.0,94,86,70,30.11,30.03,5,1,9,0.37
2013-7-4,90.7,82.4,75.6,79.0,76.6,73.0,94,83,66,30.13,30.05,4,1,9,0.01
2013-7-5,89.7,83.0,77.5,79.0,76.7,74.0,94,81,63,30.12,30.03,6,1,9,0.02
2013-7-6,90.1,82.4,76.5,78.0,75.8,74.0,92,81,64,30.10,30.02,4,1,8,0.02
2013-7-7,90.1,83.0,77.0,79.0,76.6,75.0,94,81,65,30.09,30.01,5,1,8,0.19
2013-7-8,90.8,82.2,76.7,78.0,76.1,74.0,95,82,62,30.12,30.05,4,1,6,0.00
2013-7-9,88.6,80.2,75.4,78.0,75.1,72.0,95,85,63,30.14,30.03,3,0,5,0.55
2013-7-10,89.1,79.9,75.2,78.0,74.8,73.0,93,85,68,30.06,29.97,4,0,5,0.56
2013-7-11,92.1,79.7,75.6,79.0,75.6,73.0,95,88,63,30.02,29.92,3,0,4,0.24
2013-7-12,96.1,81.4,74.0,79.0,74.8,73.0,96,82,48,29.93,29.86,3,0,7,0.00
2013-7-13,88.8,78.0,74.8,80.0,74.7,73.0,95,90,68,29.99,29.89,3,0,5,0.63
2013-7-14,86.2,75.7,72.9,79.0,73.5,71.0,96,93,76,30.07,29.96,3,0,4,0.67
2013-7-15,89.3,79.1,72.6,79.0,74.7,71.0,96,87,66,30.08,30.00,2,0,6,0.04
2013-7-16,82.5,77.2,73.9,77.0,74.4,72.0,95,91,79,30.14,30.04,3,0,5,0.33
2013-7-17,85.5,78.6,73.7,78.0,74.8,72.0,95,88,69,30.11,30.03,5,1,9,0.35
2013-7-18,88.1,77.5,73.1,78.0,74.5,72.0,96,91,70,30.10,30.03,3,0,5,1.64
2013-7-19,90.2,80.8,73.2,80.0,76.1,72.0,96,86,68,30.10,30.01,4,0,5,0.00
2013-7-20,90.0,79.2,74.0,81.0,76.3,71.0,95,91,74,30.08,30.00,6,0,6,0.18
2013-7-21,93.1,79.9,72.0,81.0,75.6,70.0,96,87,65,30.13,30.01,4,0,5,0.92
2013-7-22,96.2,81.3,73.1,82.0,76.0,72.0,95,85,57,30.11,30.04,3,0,4,0.17
2013-7-23,95.9,82.4,76.1,80.0,76.6,74.0,95,84,54,30.07,29.94,3,0,5,1.65
2013-7-24,94.8,82.9,75.2,79.0,76.4,74.0,96,82,55,29.99,29.88,4,0,4,0.00
2013-7-25,92.8,83.3,76.9,80.0,77.0,75.0,94,82,61,29.98,29.87,3,0,4,0.08
2013-7-26,94.5,82.8,75.5,80.0,77.2,74.0,95,84,63,29.98,29.92,2,0,4,0.31
2013-7-27,94.7,82.5,76.7,80.0,77.0,75.0,95,84,58,29.97,29.90,3,0,5,0.00
2013-7-28,93.7,80.6,75.2,80.0,76.3,73.0,95,87,64,30.06,29.92,5,0,8,1.13
2013-7-29,93.6,81.3,75.7,80.0,76.6,74.0,95,86,58,30.12,30.00,3,0,4,1.02
2013-7-30,90.9,83.2,76.7,81.0,77.8,75.0,95,84,66,30.14,30.06,4,1,5,0.00
2013-7-31,92.9,84.9,77.9,80.0,77.4,73.0,95,79,54,30.09,29.99,4,1,6,0.00
2013-8-1,92.8,84.2,77.6,79.0,76.9,76.0,94,80,63,30.04,29.92,4,1,7,0.00
2013-8-2,94.8,80.6,76.0,79.0,76.4,73.0,95,87,57,30.01,29.91,3,0,4,1.40
2013-8-3,82.2,78.4,76.7,79.0,76.4,75.0,96,93,87,30.09,29.99,2,0,3,0.21
2013-8-4,96.1,82.0,74.7,82.0,77.1,74.0,96,86,60,30.08,29.96,2,0,3,0.11
2013-8-5,97.1,82.2,74.9,82.0,76.7,73.0,95,85,53,30.00,29.90,3,0,5,0.48
2013-8-6,93.2,82.6,74.4,81.0,77.2,73.0,96,85,63,29.94,29.87,2,0,4,0.00
2013-8-7,91.9,83.4,78.6,81.0,78.3,77.0,95,85,68,29.96,29.88,3,1,7,0.63
2013-8-8,92.3,84.6,78.6,80.0,77.4,76.0,92,80,62,30.00,29.92,5,1,8,0.00
2013-8-9,91.7,84.0,78.6,79.0,76.5,74.0,92,79,62,30.05,29.94,5,1,7,0.00
2013-8-10,94.5,84.9,77.4,80.0,77.3,75.0,94,79,57,30.09,30.02,4,1,6,0.00
2013-8-11,94.0,84.7,78.2,80.0,77.4,76.0,94,80,61,30.11,30.05,5,1,6,0.00
2013-8-12,93.4,84.4,75.7,79.0,76.6,74.0,95,79,58,30.09,30.00,3,0,5,0.00
2013-8-13,95.2,84.9,77.7,81.0,77.5,76.0,95,79,58,30.03,29.92,4,1,5,0.00
2013-8-14,97.5,84.2,75.9,79.0,75.7,73.0,94,77,46,29.99,29.89,3,0,4,0.00
2013-8-15,93.1,82.6,76.7,79.0,76.5,75.0,93,82,59,30.03,29.92,3,0,4,0.02
2013-8-16,95.7,84.7,76.7,81.0,77.8,75.0,94,81,55,30.03,29.94,5,1,7,0.00
2013-8-17,94.7,86.4,80.3,82.0,78.9,77.0,93,79,60,30.05,29.97,5,1,6,0.00
2013-8-18,93.1,85.7,80.0,80.0,78.2,77.0,93,79,64,30.07,29.97,5,1,7,0.04
2013-8-19,94.7,86.0,79.6,80.0,77.8,75.0,93,78,57,30.05,29.94,4,1,7,0.00
2013-8-20,94.6,85.5,77.5,79.0,76.9,74.0,92,77,52,30.05,29.97,6,1,7,0.06
2013-8-21,92.1,83.3,76.6,81.0,77.9,74.0,94,84,66,30.07,29.99,6,1,7,0.21
2013-8-22,93.4,84.5,76.6,81.0,77.7,75.0,95,81,60,30.05,29.94,6,1,8,0.01
2013-8-23,93.9,84.3,77.7,80.0,77.8,76.0,95,81,59,29.99,29.92,5,1,6,0.00
2013-8-24,94.0,83.7,77.7,80.0,77.0,74.0,94,81,62,30.07,29.96,3,1,8,0.00
2013-8-25,92.3,82.3,76.9,79.0,76.2,74.0,94,82,57,30.12,30.02,4,1,7,0.02
2013-8-26,91.4,82.1,76.4,80.0,76.3,75.0,94,83,62,30.09,29.98,5,0,6,0.16
2013-8-27,89.3,80.5,74.4,77.0,74.7,73.0,95,83,60,30.02,29.95,3,0,6,0.03
2013-8-28,89.3,80.9,74.3,78.0,74.8,71.0,95,82,62,30.02,29.94,3,0,6,0.03
2013-8-29,92.7,81.4,74.1,80.0,75.7,73.0,96,84,57,30.01,29.91,3,0,5,0.04
2013-8-30,93.0,83.1,76.2,80.0,76.5,74.0,96,81,59,29.97,29.86,3,0,4,0.00
2013-8-31,98.0,82.2,74.5,79.0,74.7,70.0,94,80,44,29.96,29.87,3,0,7,0.10
2013-9-1,93.6,80.0,73.9,80.0,74.9,70.0,95,85,60,29.98,29.89,3,0,6,1.17
2013-9-2,94.6,80.4,73.9,80.0,75.1,72.0,96,85,57,30.00,29.91,2,0,6,0.00
2013-9-3,95.0,81.1,74.0,80.0,76.0,72.0,96,86,54,30.00,29.91,2,0,3,0.84
2013-9-4,93.1,83.3,76.8,81.0,78.0,75.0,96,85,64,30.05,29.94,3,0,5,0.00
2013-9-5,94.1,85.0,79.2,81.0,78.2,75.0,94,81,55,30.05,29.97,3,0,6,0.00
2013-9-6,92.3,83.5,77.7,80.0,77.8,76.0,94,83,62,30.01,29.92,4,0,5,0.00
2013-9-7,91.8,79.8,75.0,79.0,75.5,73.0,94,87,61,29.97,29.89,2,0,4,0.17
2013-9-8,91.3,80.1,72.7,79.0,74.9,71.0,96,85,63,29.93,29.84,3,0,5,0.03
2013-9-9,93.1,82.8,74.2,79.0,75.1,72.0,94,78,58,29.98,29.88,5,1,6,0.00
2013-9-10,90.2,81.3,77.0,80.0,76.0,73.0,94,84,67,30.04,29.94,5,0,7,0.34
2013-9-11,89.5,80.8,75.8,79.0,76.1,73.0,95,86,67,30.05,29.96,3,0,5,0.21
2013-9-12,87.3,78.0,73.8,79.0,75.2,72.0,95,91,73,29.99,29.88,2,0,4,0.44
2013-9-13,94.7,81.2,72.9,79.0,75.3,72.0,96,83,54,29.89,29.78,3,0,4,0.00
2013-9-14,95.9,82.6,76.1,80.0,77.0,73.0,95,84,55,29.95,29.80,2,0,4,0.22
2013-9-15,91.1,80.5,72.6,81.0,76.6,71.0,96,88,71,30.06,29.92,5,1,8,2.02
2013-9-16,85.3,76.8,73.8,80.0,75.3,73.0,97,95,76,30.06,29.95,3,0,6,2.56
2013-9-17,84.7,77.4,74.0,79.0,75.4,73.0,97,93,79,30.02,29.92,4,0,7,0.31
2013-9-18,87.8,80.1,74.8,79.0,75.9,73.0,96,87,71,29.99,29.91,4,0,6,0.36
2013-9-19,85.9,78.9,75.4,79.0,75.2,72.0,96,88,77,29.99,29.91,4,0,7,0.62
2013-9-20,90.0,80.3,72.4,75.0,71.8,69.0,94,77,52,29.98,29.88,4,0,5,0.00
2013-9-21,90.8,79.8,71.8,74.0,72.1,70.0,95,79,53,29.90,29.75,3,0,4,0.00
2013-9-22,94.0,83.1,74.6,79.0,75.5,73.0,95,79,56,29.84,29.73,2,0,4,0.00
2013-9-23,89.0,78.9,75.6,79.0,76.1,74.0,96,91,71,29.95,29.82,3,0,5,2.14
2013-9-24,91.4,78.8,75.1,82.0,76.1,73.0,96,91,72,29.94,29.84,3,0,5,0.69
2013-9-25,91.1,80.1,74.3,78.0,74.6,73.0,96,84,60,29.86,29.73,3,0,7,0.00
2013-9-26,94.1,81.8,76.1,82.0,77.2,74.0,95,86,63,29.82,29.75,3,0,5,0.04
2013-9-27,90.4,79.5,71.5,78.0,73.6,70.0,96,83,62,29.90,29.80,2,0,3,0.00
2013-9-28,88.0,78.4,73.1,78.0,73.6,70.0,95,85,66,29.95,29.86,3,0,7,0.31
2013-9-29,89.1,79.2,72.0,76.0,72.3,70.0,94,80,61,29.95,29.87,3,0,4,0.00
2013-9-30,90.7,80.0,71.7,75.0,72.4,70.0,95,79,58,29.99,29.88,4,0,5,0.00
2013-10-1,91.2,80.9,73.7,76.0,73.3,71.0,94,79,56,30.02,29.93,3,1,6,0.00
2013-10-2,87.1,80.7,74.7,75.0,73.3,72.0,91,79,66,30.02,29.95,4,1,7,0.00
2013-10-3,90.5,81.4,74.9,76.0,73.5,72.0,91,78,57,30.04,29.94,3,0,5,0.00
2013-10-4,91.3,80.6,73.9,75.0,73.0,71.0,95,79,55,30.04,29.96,4,0,4,0.00
2013-10-5,90.9,80.1,71.9,77.0,73.2,70.0,95,81,58,30.01,29.92,4,0,6,0.00
2013-10-6,89.5,79.5,73.9,77.0,74.9,72.0,95,86,64,29.94,29.85,3,0,5,0.07
2013-10-7,90.5,77.7,72.9,78.0,73.7,72.0,96,88,59,29.86,29.79,2,0,5,0.56
2013-10-8,91.7,80.6,73.6,77.0,73.8,71.0,97,81,57,29.89,29.80,2,0,3,0.01
2013-10-9,88.6,78.3,72.9,78.0,73.6,71.0,95,86,69,29.97,29.86,3,0,4,0.01
2013-10-10,88.5,77.3,69.2,75.0,70.7,68.0,95,81,60,30.00,29.93,2,0,3,0.00
2013-10-11,89.3,77.2,67.9,72.0,68.2,66.0,94,76,51,30.00,29.91,2,0,5,0.00
2013-10-12,91.5,78.0,68.4,72.0,69.3,66.0,93,76,45,30.01,29.93,2,0,5,0.00
2013-10-13,90.3,77.4,69.0,71.0,67.6,64.0,93,74,42,30.05,29.95,2,0,4,0.00
2013-10-14,88.5,77.1,69.1,73.0,69.9,67.0,95,80,59,29.98,29.89,3,0,6,0.00
2013-10-15,91.3,77.3,70.1,74.0,70.7,68.0,95,82,50,29.95,29.85,2,0,3,0.00
2013-10-16,87.9,77.9,69.9,75.0,72.1,69.0,96,83,62,29.93,29.86,2,0,3,0.00
2013-10-17,89.8,79.0,70.6,75.0,72.3,69.0,95,81,56,29.95,29.86,2,0,5,0.00
2013-10-18,89.9,79.5,71.0,77.0,72.9,69.0,95,81,62,29.97,29.87,4,1,6,0.00
2013-10-19,94.2,81.3,73.1,77.0,74.2,71.0,95,80,53,29.94,29.84,4,1,6,0.00
2013-10-20,94.1,82.1,75.1,79.0,75.5,69.0,95,82,47,29.93,29.84,2,0,5,0.00
2013-10-21,94.3,81.8,74.8,80.0,76.4,73.0,95,84,59,29.97,29.87,3,0,5,0.00
2013-10-22,93.9,83.9,76.5,78.0,75.9,74.0,95,78,55,29.93,29.79,2,0,6,0.00
2013-10-23,89.5,79.7,73.4,76.0,72.9,69.0,93,80,60,29.94,29.78,2,0,3,0.00
2013-10-24,84.3,72.3,64.1,69.0,63.3,57.0,87,74,53,30.09,29.94,2,0,5,0.00
2013-10-25,84.1,71.3,63.1,68.0,63.9,61.0,93,79,56,30.16,30.07,2,0,5,0.00
2013-10-26,84.8,71.6,62.6,66.0,61.7,58.0,93,73,46,30.15,30.04,2,0,5,0.00
2013-10-27,84.6,70.9,60.6,67.0,62.8,59.0,94,77,54,30.07,30.01,2,0,5,0.00
2013-10-28,86.5,73.3,63.4,70.0,65.7,61.0,94,79,53,30.13,30.04,3,0,6,0.00
2013-10-29,86.7,74.7,65.6,73.0,67.5,64.0,95,80,56,30.16,30.08,4,0,7,0.00
2013-10-30,86.5,77.3,68.0,71.0,68.4,66.0,93,75,51,30.18,30.07,5,1,8,0.00
2013-10-31,86.2,77.2,67.1,73.0,69.7,65.0,94,78,60,30.09,29.97,5,1,6,0.00
2013-11-1,91.3,80.0,71.7,76.0,73.0,70.0,95,81,57,29.99,29.84,2,0,5,0.00
2013-11-2,89.8,77.1,70.1,75.0,71.7,69.0,96,85,54,29.89,29.80,2,0,4,0.00